Time;durP1;ratioP1;P1;durP2;ratioP2;P2;SDS_P1;SDS_P2;PMS_P1;PMS_P2;Temp;Humidity;BMP_temperature;BMP_pressure;BME280_temperature;BME280_humidity;BME280_pressure;Samples;Min_cycle;Max_cycle;Signal;HPM_P1;HPM_P2
2023/06/01 00:06:50;;;;;;;8.73;3.50;;;12.60;1.00;;;;;;20876073;28;20054;-40
2023/06/01 00:16:51;;;;;;;11.43;4.50;;;12.60;1.00;;;;;;20861787;28;20689;-40
2023/06/01 00:26:52;;;;;;;5.15;2.95;;;12.40;1.00;;;;;;20873520;28;20045;-40
2023/06/01 00:36:53;;;;;;;9.07;3.28;;;12.30;1.00;;;;;;20860072;28;20036;-40
2023/06/01 00:46:54;;;;;;;5.68;2.83;;;12.20;1.00;;;;;;20883825;28;20040;-40
2023/06/01 00:56:56;;;;;;;7.03;3.10;;;12.10;1.00;;;;;;20871848;28;20401;-40
2023/06/01 01:07:06;;;;;;;7.30;3.65;;;12.10;1.00;;;;;;20862692;28;20485;-40
2023/06/01 01:17:20;;;;;;;10.80;3.63;;;12.10;1.00;;;;;;20872104;28;20080;-40
2023/06/01 01:27:39;;;;;;;5.25;2.40;;;12.20;1.00;;;;;;20897085;28;20770;-42
2023/06/01 01:37:53;;;;;;;7.57;3.05;;;12.10;1.00;;;;;;20886968;28;21056;-40
2023/06/01 01:48:01;;;;;;;8.65;3.17;;;12.20;1.00;;;;;;20887179;28;20040;-40
2023/06/01 01:58:02;;;;;;;;;;;12.00;1.00;;;;;;20896520;28;20060;-40
2023/06/01 02:08:03;;;;;;;8.02;3.50;;;12.10;1.00;;;;;;20888776;28;20363;-42
2023/06/01 02:18:05;;;;;;;6.43;3.22;;;12.00;1.00;;;;;;20878090;28;20053;-40
2023/06/01 02:28:07;;;;;;;6.25;3.10;;;12.00;1.00;;;;;;20873369;28;20060;-40
2023/06/01 02:38:08;;;;;;;7.25;3.28;;;12.00;1.00;;;;;;20891795;28;20051;-40
2023/06/01 02:48:09;;;;;;;6.30;3.15;;;12.00;1.00;;;;;;20892937;28;20391;-40
2023/06/01 02:58:16;;;;;;;4.90;2.47;;;12.10;1.00;;;;;;20886373;28;20048;-40
2023/06/01 03:08:17;;;;;;;7.50;3.63;;;12.00;1.00;;;;;;20887494;28;20033;-40
2023/06/01 03:18:18;;;;;;;5.88;2.80;;;12.10;1.00;;;;;;20879763;28;20045;-40
2023/06/01 03:28:19;;;;;;;8.20;2.85;;;12.00;1.00;;;;;;20897449;28;20047;-40
2023/06/01 03:38:21;;;;;;;7.68;3.20;;;12.00;1.00;;;;;;20884460;28;20043;-40
2023/06/01 03:48:22;;;;;;;8.95;3.25;;;11.90;1.00;;;;;;20881809;28;20032;-40
2023/06/01 03:58:23;;;;;;;9.95;3.55;;;11.90;1.00;;;;;;20881281;28;20060;-40
2023/06/01 04:08:27;;;;;;;7.43;3.67;;;11.90;1.00;;;;;;20882922;28;20518;-40
2023/06/01 04:18:28;;;;;;;7.47;3.47;;;12.00;1.00;;;;;;20923395;28;20642;-41
2023/06/01 04:28:49;;;;;;;8.77;3.55;;;11.90;1.00;;;;;;20928751;28;20446;-41
2023/06/01 04:39:09;;;;;;;8.38;3.78;;;12.00;1.00;;;;;;20853494;28;20041;-41
2023/06/01 04:49:11;;;;;;;8.35;4.05;;;12.00;1.00;;;;;;20876059;28;20105;-41
2023/06/01 04:59:13;;;;;;;9.85;4.10;;;12.00;1.00;;;;;;20893678;28;20131;-41
2023/06/01 05:09:14;;;;;;;7.78;3.10;;;12.00;1.00;;;;;;20890012;28;20035;-41
2023/06/01 05:19:15;;;;;;;8.20;3.20;;;12.00;1.00;;;;;;20895666;28;20049;-41
2023/06/01 05:29:16;;;;;;;8.27;2.85;;;12.20;1.00;;;;;;20896724;28;20041;-41
2023/06/01 05:39:17;;;;;;;7.82;3.15;;;12.20;1.00;;;;;;20892081;28;20496;-41
2023/06/01 05:49:19;;;;;;;8.68;2.80;;;12.30;1.00;;;;;;20895140;28;20060;-41
2023/06/01 05:59:20;;;;;;;8.77;2.78;;;12.30;1.00;;;;;;20894087;28;20048;-41
2023/06/01 06:09:21;;;;;;;10.60;3.47;;;12.30;1.00;;;;;;20890342;28;20036;-41
2023/06/01 06:19:22;;;;;;;8.18;2.85;;;12.40;1.00;;;;;;20885724;28;20413;-41
2023/06/01 06:29:23;;;;;;;5.93;2.20;;;12.50;1.00;;;;;;20887661;28;20222;-41
2023/06/01 06:39:24;;;;;;;7.50;2.60;;;12.70;1.00;;;;;;20877787;28;20049;-41
2023/06/01 06:49:26;;;;;;;8.25;2.65;;;12.80;1.00;;;;;;20895294;28;20037;-41
2023/06/01 06:59:27;;;;;;;5.03;1.90;;;12.90;1.00;;;;;;20882096;28;20041;-41
2023/06/01 07:09:28;;;;;;;7.20;2.42;;;13.00;1.00;;;;;;20885060;28;20039;-41
2023/06/01 07:19:35;;;;;;;5.78;2.30;;;13.10;1.00;;;;;;20875266;28;20524;-41
2023/06/01 07:29:36;;;;;;;8.63;1.88;;;13.30;1.00;;;;;;20830184;28;20032;-41
2023/06/01 07:39:37;;;;;;;4.00;2.00;;;13.40;1.00;;;;;;20866674;28;20055;-41
2023/06/01 07:49:38;;;;;;;4.07;1.63;;;13.50;1.00;;;;;;20845444;28;20045;-41
2023/06/01 07:59:39;;;;;;;4.50;1.40;;;13.70;1.00;;;;;;20874654;28;20044;-41
2023/06/01 08:09:42;;;;;;;5.88;2.00;;;13.70;1.00;;;;;;20861785;28;20029;-41
2023/06/01 08:19:43;;;;;;;3.25;1.55;;;14.10;1.00;;;;;;20855245;28;20327;-41
2023/06/01 08:29:48;;;;;;;3.42;1.40;;;14.30;1.00;;;;;;20883679;28;20048;-40
2023/06/01 08:39:49;;;;;;;3.80;1.55;;;14.60;1.00;;;;;;20898766;28;20051;-41
2023/06/01 08:49:51;;;;;;;6.28;2.10;;;14.80;1.00;;;;;;20894058;28;20032;-41
2023/06/01 08:59:52;;;;;;;4.43;2.03;;;14.90;1.00;;;;;;20901678;28;20043;-41
2023/06/01 09:09:53;;;;;;;3.63;1.45;;;14.90;1.00;;;;;;20906896;28;20036;-41
2023/06/01 09:19:55;;;;;;;6.40;1.60;;;14.80;1.00;;;;;;20889803;28;20048;-41
2023/06/01 09:29:59;;;;;;;2.67;1.35;;;14.80;1.00;;;;;;20898942;28;20079;-40
2023/06/01 09:40:03;;;;;;;5.55;1.85;;;14.70;1.00;;;;;;20896227;28;20049;-40
2023/06/01 09:50:05;;;;;;;6.38;1.30;;;15.00;1.00;;;;;;20892533;28;20240;-40
2023/06/01 10:00:07;;;;;;;4.45;2.00;;;15.40;1.00;;;;;;20893815;28;20037;-41
2023/06/01 10:10:15;;;;;;;4.53;1.70;;;15.40;1.00;;;;;;20886473;28;20064;-41
2023/06/01 10:20:16;;;;;;;4.40;1.90;;;15.70;1.00;;;;;;20887789;28;20345;-41
2023/06/01 10:30:18;;;;;;;3.72;1.80;;;15.80;1.00;;;;;;20891516;28;20046;-41
2023/06/01 10:40:24;;;;;;;8.95;2.00;;;15.70;1.00;;;;;;20902911;28;20044;-41
2023/06/01 10:50:26;;;;;;;5.82;1.52;;;16.00;1.00;;;;;;20883660;28;20403;-41
2023/06/01 11:00:27;;;;;;;5.10;1.75;;;15.90;1.00;;;;;;20902503;28;20055;-41
2023/06/01 11:10:50;;;;;;;3.28;1.35;;;16.20;1.00;;;;;;20889725;28;20067;-41
2023/06/01 11:20:53;;;;;;;3.67;1.70;;;16.10;1.00;;;;;;20898973;28;20044;-40
2023/06/01 11:30:56;;;;;;;5.38;1.70;;;16.20;1.00;;;;;;20888220;28;20059;-39
2023/06/01 11:41:01;;;;;;;3.90;1.67;;;16.50;1.00;;;;;;20897062;28;20033;-39
2023/06/01 11:51:04;;;;;;;1.98;1.13;;;16.60;1.00;;;;;;20890371;28;20775;-39
2023/06/01 12:01:07;;;;;;;6.82;1.58;;;16.50;1.00;;;;;;20889163;28;20029;-39
2023/06/01 12:11:08;;;;;;;2.67;1.05;;;16.40;1.00;;;;;;20889454;28;20055;-38
2023/06/01 12:21:13;;;;;;;3.08;1.30;;;16.30;1.00;;;;;;20878591;28;20478;-39
2023/06/01 12:31:15;;;;;;;7.82;1.48;;;15.70;1.00;;;;;;20896265;28;20057;-39
2023/06/01 12:41:17;;;;;;;4.55;1.05;;;15.70;1.00;;;;;;20891053;28;20048;-39
2023/06/01 12:51:19;;;;;;;3.28;1.60;;;15.50;1.00;;;;;;20872291;28;20068;-39
2023/06/01 13:01:21;;;;;;;2.55;1.25;;;15.30;1.00;;;;;;20881609;28;20044;-39
2023/06/01 13:11:22;;;;;;;7.15;1.25;;;15.40;1.00;;;;;;20889596;28;20199;-41
2023/06/01 13:21:23;;;;;;;2.60;1.13;;;15.20;1.00;;;;;;20887599;28;20044;-41
2023/06/01 13:31:24;;;;;;;1.80;0.90;;;14.90;1.00;;;;;;20893913;28;20578;-41
2023/06/01 13:41:25;;;;;;;2.17;1.10;;;14.80;1.00;;;;;;20901119;28;20527;-39
2023/06/01 13:51:28;;;;;;;3.15;0.95;;;14.90;1.00;;;;;;20901026;28;20483;-39
2023/06/01 14:01:29;;;;;;;1.75;0.70;;;15.00;1.00;;;;;;20882331;28;20506;-39
2023/06/01 14:11:30;;;;;;;5.22;1.77;;;14.90;1.00;;;;;;20893024;28;20052;-39
2023/06/01 14:21:32;;;;;;;3.50;1.20;;;15.00;1.00;;;;;;20893226;28;20076;-39
2023/06/01 14:31:33;;;;;;;2.00;0.93;;;15.00;1.00;;;;;;20882928;28;20048;-39
2023/06/01 14:41:34;;;;;;;1.58;0.85;;;14.80;1.00;;;;;;20890555;28;20037;-41
2023/06/01 14:51:35;;;;;;;1.98;0.60;;;14.80;1.00;;;;;;20897458;28;20040;-42
2023/06/01 15:01:36;;;;;;;2.65;0.88;;;14.90;1.00;;;;;;20896206;28;20393;-39
2023/06/01 15:11:37;;;;;;;1.85;0.93;;;14.90;1.00;;;;;;20883794;28;20040;-39
2023/06/01 15:21:38;;;;;;;2.42;1.08;;;15.00;1.00;;;;;;20889994;28;20044;-41
2023/06/01 15:31:40;;;;;;;2.95;1.25;;;15.10;1.00;;;;;;20885654;28;20451;-39
2023/06/01 15:41:41;;;;;;;2.28;1.48;;;15.00;1.00;;;;;;20885510;28;20033;-41
2023/06/01 15:51:42;;;;;;;2.63;1.10;;;15.10;1.00;;;;;;20888779;28;20056;-41
2023/06/01 16:01:43;;;;;;;4.72;1.35;;;15.10;1.00;;;;;;20885487;28;20519;-41
2023/06/01 16:11:44;;;;;;;5.32;1.52;;;15.00;1.00;;;;;;20897191;28;20060;-51
2023/06/01 16:21:46;;;;;;;2.70;1.30;;;14.90;1.00;;;;;;20904649;28;20033;-41
2023/06/01 16:31:47;;;;;;;3.47;1.67;;;14.80;1.00;;;;;;20897040;28;20036;-42
2023/06/01 16:41:48;;;;;;;2.22;0.90;;;14.70;1.00;;;;;;20902868;28;20044;-41
2023/06/01 16:51:49;;;;;;;2.50;1.20;;;14.60;1.00;;;;;;20918404;28;20036;-41
2023/06/01 17:01:51;;;;;;;5.05;1.38;;;14.60;1.00;;;;;;20905440;28;20451;-41
2023/06/01 17:11:53;;;;;;;5.97;1.77;;;14.40;1.00;;;;;;20902158;28;20515;-41
2023/06/01 17:21:54;;;;;;;3.10;1.50;;;14.20;1.00;;;;;;20901556;28;20048;-41
2023/06/01 17:31:55;;;;;;;3.58;1.10;;;14.10;1.00;;;;;;20903490;28;20037;-41
2023/06/01 17:41:56;;;;;;;3.38;1.50;;;14.00;1.00;;;;;;20904300;28;20052;-40
2023/06/01 17:51:58;;;;;;;3.13;1.42;;;13.80;1.00;;;;;;20887741;28;20040;-40
2023/06/01 18:01:59;;;;;;;4.82;1.25;;;13.90;1.00;;;;;;20880825;28;20536;-41
2023/06/01 18:12:00;;;;;;;2.78;0.93;;;13.80;1.00;;;;;;20888434;28;20064;-41
2023/06/01 18:22:01;;;;;;;3.05;0.90;;;13.70;1.00;;;;;;20891476;28;20504;-40
2023/06/01 18:32:02;;;;;;;4.45;0.93;;;13.60;1.00;;;;;;20896196;28;20037;-41
2023/06/01 18:42:04;;;;;;;1.52;0.75;;;13.40;1.00;;;;;;20892266;28;20149;-41
2023/06/01 18:52:05;;;;;;;2.85;1.15;;;13.30;1.00;;;;;;20892700;28;20052;-41
2023/06/01 19:02:09;;;;;;;2.30;0.80;;;13.40;1.00;;;;;;20892693;28;20525;-40
2023/06/01 19:12:10;;;;;;;5.28;0.70;;;13.30;1.00;;;;;;20890030;28;20557;-41
2023/06/01 19:22:14;;;;;;;5.20;0.85;;;13.30;1.00;;;;;;20882293;28;20528;-41
2023/06/01 19:32:15;;;;;;;5.03;1.25;;;13.30;1.00;;;;;;20890718;28;20043;-40
2023/06/01 19:42:16;;;;;;;1.92;0.60;;;13.20;1.00;;;;;;20885324;28;20063;-41
2023/06/01 19:52:39;;;;;;;5.28;1.70;;;13.20;1.00;;;;;;20887321;28;20051;-41
2023/06/01 20:02:51;;;;;;;3.47;1.08;;;13.20;1.00;;;;;;20889658;28;20033;-41
2023/06/01 20:12:54;;;;;;;3.90;1.25;;;13.10;1.00;;;;;;20877421;28;20051;-40
2023/06/01 20:22:55;;;;;;;4.50;1.13;;;13.00;1.00;;;;;;20878857;28;20048;-40
2023/06/01 20:32:56;;;;;;;2.13;0.80;;;13.00;1.00;;;;;;20873673;28;20302;-40
2023/06/01 20:42:58;;;;;;;4.28;1.10;;;13.10;1.00;;;;;;20865820;28;20556;-40
2023/06/01 20:53:00;;;;;;;5.13;0.98;;;13.00;1.00;;;;;;20880716;28;20032;-40
2023/06/01 21:03:01;;;;;;;5.28;1.75;;;13.00;1.00;;;;;;20871520;28;20048;-40
2023/06/01 21:13:02;;;;;;;3.20;1.00;;;12.90;1.00;;;;;;20891431;28;20045;-40
2023/06/01 21:23:03;;;;;;;4.00;1.20;;;12.80;1.00;;;;;;20901024;28;20049;-40
2023/06/01 21:33:04;;;;;;;4.05;1.35;;;12.80;1.00;;;;;;20882791;28;20041;-40
2023/06/01 21:43:05;;;;;;;5.05;2.15;;;12.70;1.00;;;;;;20900753;28;20412;-40
2023/06/01 21:53:06;;;;;;;7.20;1.98;;;12.70;1.00;;;;;;20888288;28;20037;-40
2023/06/01 22:03:08;;;;;;;6.13;1.60;;;12.70;1.00;;;;;;20865996;28;21173;-40
2023/06/01 22:13:09;;;;;;;2.90;1.10;;;12.50;1.00;;;;;;20892581;28;20053;-40
2023/06/01 22:23:10;;;;;;;10.38;2.17;;;12.40;1.00;;;;;;20887047;28;20508;-41
2023/06/01 22:33:11;;;;;;;5.10;1.67;;;12.50;1.00;;;;;;20882445;28;20040;-40
2023/06/01 22:43:12;;;;;;;5.43;1.65;;;12.50;1.00;;;;;;20873671;28;20045;-40
2023/06/01 22:53:14;;;;;;;4.45;1.25;;;12.40;1.00;;;;;;20878835;28;20044;-40
2023/06/01 23:03:15;;;;;;;4.15;1.50;;;12.40;1.00;;;;;;20876364;28;20040;-40
2023/06/01 23:13:24;;;;;;;7.15;1.88;;;12.40;1.00;;;;;;20856527;28;20061;-40
2023/06/01 23:23:26;;;;;;;3.35;1.02;;;12.50;1.00;;;;;;20863731;28;20033;-40
2023/06/01 23:33:29;;;;;;;2.75;1.17;;;12.40;1.00;;;;;;20858206;28;20032;-40
2023/06/01 23:43:30;;;;;;;5.22;2.00;;;12.50;1.00;;;;;;20861453;28;20412;-40
2023/06/01 23:53:31;;;;;;;5.03;2.38;;;12.40;1.00;;;;;;20851921;28;20029;-40
